Rixensart, Belgium
Current Conditions -  °F | °C
As of 6:34 PM on Friday 24 Oct 2014 (Local Time) from EBBE Reporting Station
Overcast Overcast  
Wind Chill: 54°   Ceiling: 6500
Heat Index: 54°   Visibility: 6mi
Dew Point: 48°   Wind: 12mph
Humidity: 82%   Direction: 200°SSW
Pressure: 30.03"   Gusts: NA
Location:  50.71°N, 4.53°E
Report Text: EBBE 241634Z AUTO 20010KT 9999 VV065/// 12/09 Q1017 RED
Loading
Personal Weather Stations






























Interactive Weather Map
Tropical Storm Tracking
New forecast layout! Learn more

10-Day Weather Forecast

Advertisements
Track Severe Weather on mobile